Time;durP1;ratioP1;P1;durP2;ratioP2;P2;SDS_P1;SDS_P2;PMS_P1;PMS_P2;Temp;Humidity;BMP_temperature;BMP_pressure;BME280_temperature;BME280_humidity;BME280_pressure;Samples;Min_cycle;Max_cycle;Signal;HPM_P1;HPM_P2
2023/07/31 00:00:34;;;;;;;1.23;1.13;;;15.70;99.90;;;;;;5070988;28;20028;-49
2023/07/31 00:02:59;;;;;;;2.50;1.00;;;15.70;99.90;;;;;;5071544;28;20036;-52
2023/07/31 00:05:25;;;;;;;5.72;1.15;;;15.70;99.90;;;;;;5071551;28;20044;-49
2023/07/31 00:07:51;;;;;;;2.60;1.35;;;15.70;99.90;;;;;;5071090;28;20033;-53
2023/07/31 00:10:16;;;;;;;2.28;1.38;;;15.70;99.90;;;;;;5071540;28;20032;-49
2023/07/31 00:12:43;;;;;;;2.30;1.55;;;15.70;99.90;;;;;;5071253;28;20036;-49
2023/07/31 00:15:09;;;;;;;4.05;1.52;;;15.60;99.90;;;;;;5070652;28;20040;-49
2023/07/31 00:17:36;;;;;;;;;;;15.60;99.90;;;;;;5071568;28;20037;-55
2023/07/31 00:20:02;;;;;;;1.95;1.20;;;15.60;99.90;;;;;;5071210;28;20301;-51
2023/07/31 00:22:27;;;;;;;1.67;1.33;;;15.60;99.90;;;;;;5071372;28;20051;-49
2023/07/31 00:24:53;;;;;;;1.98;1.55;;;15.60;99.90;;;;;;5071385;28;20144;-56
2023/07/31 00:27:18;;;;;;;1.85;1.42;;;15.60;99.90;;;;;;5070609;28;20040;-49
2023/07/31 00:29:44;;;;;;;7.10;1.67;;;15.50;99.90;;;;;;5070231;28;20041;-49
2023/07/31 00:32:10;;;;;;;4.15;1.52;;;15.50;99.90;;;;;;5071033;28;20049;-52
2023/07/31 00:34:35;;;;;;;2.38;1.20;;;15.60;99.90;;;;;;5069051;28;20039;-51
2023/07/31 00:37:01;;;;;;;1.60;1.38;;;15.50;99.90;;;;;;5059250;28;20028;-49
2023/07/31 00:39:26;;;;;;;1.52;1.15;;;15.50;99.90;;;;;;5056907;28;20456;-49
2023/07/31 00:41:52;;;;;;;1.70;1.02;;;15.50;99.90;;;;;;5056887;28;20041;-53
2023/07/31 00:44:17;;;;;;;1.60;1.48;;;15.50;99.90;;;;;;5057958;28;20036;-49
2023/07/31 00:46:43;;;;;;;3.28;1.23;;;15.50;99.90;;;;;;5062649;28;20041;-49
2023/07/31 00:49:10;;;;;;;1.40;1.25;;;15.50;99.90;;;;;;5050518;28;20573;-49
2023/07/31 00:51:35;;;;;;;1.30;0.95;;;15.40;99.90;;;;;;5057225;28;20433;-50
2023/07/31 00:54:02;;;;;;;2.08;0.95;;;15.40;99.90;;;;;;5070814;28;20036;-49
2023/07/31 00:56:28;;;;;;;1.92;0.93;;;15.40;99.90;;;;;;5070407;28;20585;-49
2023/07/31 00:58:54;;;;;;;1.52;1.08;;;15.40;99.90;;;;;;5069563;28;20112;-54
2023/07/31 01:01:20;;;;;;;;;;;15.40;99.90;;;;;;5070990;28;20058;-49
2023/07/31 01:03:46;;;;;;;1.30;0.90;;;15.40;99.90;;;;;;5062696;28;19917;-49
2023/07/31 01:06:29;;;;;;;2.65;0.80;;;15.30;99.90;;;;;;5049355;28;20045;-49
2023/07/31 01:08:59;;;;;;;1.40;0.90;;;15.30;99.90;;;;;;5050092;28;20440;-50
2023/07/31 01:11:30;;;;;;;2.25;0.70;;;15.30;99.90;;;;;;5061090;28;20041;-51
2023/07/31 01:13:56;;;;;;;2.10;0.68;;;15.30;99.90;;;;;;5070411;28;20072;-50
2023/07/31 01:16:22;;;;;;;2.65;0.75;;;15.30;99.90;;;;;;5070214;28;20040;-49
2023/07/31 01:18:47;;;;;;;1.05;0.73;;;15.30;99.90;;;;;;5069426;28;20551;-52
2023/07/31 01:21:34;;;;;;;1.63;0.90;;;15.30;99.90;;;;;;5050927;28;20036;-50
2023/07/31 01:24:36;;;;;;;1.52;0.75;;;15.30;99.90;;;;;;5063588;28;20079;-51
2023/07/31 01:27:10;;;;;;;1.02;0.63;;;15.30;99.90;;;;;;5060845;28;20045;-51
2023/07/31 01:29:46;;;;;;;1.05;0.70;;;15.20;99.90;;;;;;5049824;28;20513;-49
2023/07/31 01:32:13;;;;;;;2.70;0.93;;;15.20;99.90;;;;;;5065269;28;20037;-49
2023/07/31 01:34:40;;;;;;;1.50;0.60;;;15.30;99.90;;;;;;5070335;28;20515;-50
2023/07/31 01:37:06;;;;;;;1.83;0.68;;;15.20;99.90;;;;;;5069734;28;20118;-49
2023/07/31 01:39:31;;;;;;;2.38;0.85;;;15.20;99.90;;;;;;5070064;28;20075;-49
2023/07/31 01:41:57;;;;;;;1.00;0.50;;;15.20;99.90;;;;;;5070053;28;20493;-53
2023/07/31 01:44:22;;;;;;;1.02;0.60;;;15.20;99.90;;;;;;5054151;28;20045;-49
2023/07/31 01:46:48;;;;;;;1.50;0.73;;;15.20;99.90;;;;;;5059214;28;20040;-53
2023/07/31 01:49:13;;;;;;;0.82;0.50;;;15.20;99.90;;;;;;5067011;28;20050;-51
2023/07/31 01:51:39;;;;;;;1.00;0.73;;;15.20;99.90;;;;;;5068085;28;20040;-51
2023/07/31 01:54:05;;;;;;;1.40;0.57;;;15.20;99.90;;;;;;5051829;28;20037;-49
2023/07/31 01:56:31;;;;;;;1.33;0.80;;;15.20;99.90;;;;;;5059907;28;20066;-49
2023/07/31 01:58:56;;;;;;;2.78;0.50;;;15.20;99.90;;;;;;5049721;28;20498;-49
2023/07/31 02:01:22;;;;;;;1.30;0.77;;;15.20;99.90;;;;;;5061852;28;20103;-49
2023/07/31 02:03:47;;;;;;;1.25;0.70;;;15.20;99.90;;;;;;5067385;28;20041;-50
2023/07/31 02:06:13;;;;;;;2.00;0.52;;;15.20;99.90;;;;;;5069532;28;20343;-49
2023/07/31 02:08:38;;;;;;;0.95;0.40;;;15.20;99.90;;;;;;5069416;28;20029;-49
2023/07/31 02:11:04;;;;;;;0.50;0.40;;;15.20;99.90;;;;;;5070866;28;20045;-54
2023/07/31 02:13:29;;;;;;;0.70;0.40;;;15.30;99.90;;;;;;5061340;28;20048;-49
2023/07/31 02:15:55;;;;;;;0.80;0.40;;;15.30;99.90;;;;;;5053023;28;20037;-49
2023/07/31 02:18:22;;;;;;;3.72;0.57;;;15.30;99.90;;;;;;5053291;28;20390;-49
2023/07/31 02:20:51;;;;;;;1.13;0.50;;;15.30;99.90;;;;;;5068196;28;20111;-52
2023/07/31 02:23:18;;;;;;;1.15;0.60;;;15.30;99.90;;;;;;5073583;28;20066;-49
2023/07/31 02:25:44;;;;;;;2.00;0.50;;;15.30;99.90;;;;;;5073336;28;20044;-51
2023/07/31 02:28:10;;;;;;;0.93;0.43;;;15.30;99.90;;;;;;5056799;28;20037;-52
2023/07/31 02:30:35;;;;;;;2.35;0.40;;;15.30;99.90;;;;;;5065349;28;20052;-49
2023/07/31 02:33:01;;;;;;;1.02;0.50;;;15.30;99.90;;;;;;5064436;28;20041;-52
2023/07/31 02:35:26;;;;;;;0.80;0.60;;;15.30;99.90;;;;;;5053313;28;20138;-49
2023/07/31 02:37:52;;;;;;;1.30;0.65;;;15.30;99.90;;;;;;5060420;28;20025;-52
2023/07/31 02:40:17;;;;;;;1.63;0.85;;;15.40;99.90;;;;;;5056371;28;20066;-50
2023/07/31 02:42:43;;;;;;;0.75;0.75;;;15.40;99.90;;;;;;5052807;28;20414;-49
2023/07/31 02:45:09;;;;;;;2.05;0.80;;;15.40;99.90;;;;;;5061511;28;20048;-49
2023/07/31 02:47:34;;;;;;;1.42;0.75;;;15.40;99.90;;;;;;5065697;28;20122;-49
2023/07/31 02:50:01;;;;;;;1.30;0.50;;;15.50;99.90;;;;;;5072921;28;20033;-53
2023/07/31 02:52:26;;;;;;;0.77;0.40;;;15.50;99.90;;;;;;5051926;28;20452;-49
2023/07/31 02:54:52;;;;;;;2.13;0.45;;;15.50;99.90;;;;;;5052883;28;20036;-55
2023/07/31 02:57:18;;;;;;;1.75;0.47;;;15.50;99.90;;;;;;5053106;28;20482;-49
2023/07/31 02:59:43;;;;;;;0.93;0.50;;;15.50;99.90;;;;;;5052423;28;20045;-49
2023/07/31 03:02:09;;;;;;;0.98;0.60;;;15.60;99.90;;;;;;5052701;28;20053;-49
2023/07/31 03:04:34;;;;;;;1.42;0.40;;;15.60;99.90;;;;;;5072386;28;20045;-51
2023/07/31 03:07:00;;;;;;;1.67;0.63;;;15.60;99.90;;;;;;5072366;28;20087;-48
2023/07/31 03:09:25;;;;;;;0.75;0.63;;;15.70;99.90;;;;;;5072524;28;20063;-49
2023/07/31 03:11:51;;;;;;;1.48;0.80;;;15.70;99.90;;;;;;5072484;28;20040;-49
2023/07/31 03:14:16;;;;;;;1.25;0.50;;;15.60;99.90;;;;;;5072463;28;20036;-50
2023/07/31 03:16:42;;;;;;;2.22;0.57;;;15.70;99.90;;;;;;5072530;28;20454;-49
2023/07/31 03:19:08;;;;;;;0.93;0.50;;;15.70;99.90;;;;;;5072409;28;20098;-49
2023/07/31 03:21:33;;;;;;;3.08;0.68;;;15.70;99.90;;;;;;5071993;28;20067;-52
2023/07/31 03:23:59;;;;;;;1.50;0.50;;;15.70;99.90;;;;;;5072316;28;20101;-49
2023/07/31 03:26:24;;;;;;;1.40;0.50;;;15.70;99.90;;;;;;5072158;28;20044;-49
2023/07/31 03:28:50;;;;;;;1.67;0.60;;;15.70;99.90;;;;;;5071331;28;20039;-51
2023/07/31 03:31:15;;;;;;;0.95;0.60;;;15.70;99.90;;;;;;5072311;28;20048;-49
2023/07/31 03:33:41;;;;;;;1.60;0.60;;;15.70;99.90;;;;;;5072481;28;20381;-50
2023/07/31 03:36:07;;;;;;;1.00;0.60;;;15.70;99.90;;;;;;5072102;28;20032;-50
2023/07/31 03:38:33;;;;;;;;;;;15.70;99.90;;;;;;5072254;28;20044;-52
2023/07/31 03:40:59;;;;;;;0.90;0.50;;;15.70;99.90;;;;;;5053098;28;19956;-50
2023/07/31 03:43:24;;;;;;;1.05;0.50;;;15.70;99.90;;;;;;5051409;28;20083;-51
2023/07/31 03:45:50;;;;;;;0.95;0.40;;;15.70;99.90;;;;;;5052000;28;20094;-49
2023/07/31 03:48:16;;;;;;;0.80;0.40;;;15.70;99.90;;;;;;5067896;28;20388;-49
2023/07/31 03:50:42;;;;;;;1.98;0.40;;;15.70;99.90;;;;;;5064090;28;20449;-49
2023/07/31 03:53:07;;;;;;;0.90;0.30;;;15.70;99.90;;;;;;5064356;28;20094;-49
2023/07/31 03:55:33;;;;;;;2.55;0.52;;;15.70;99.90;;;;;;5059180;28;20063;-54
2023/07/31 03:58:00;;;;;;;0.70;0.47;;;15.70;99.90;;;;;;5063018;28;20116;-50
2023/07/31 04:00:27;;;;;;;0.70;0.32;;;15.70;99.90;;;;;;5054878;28;20526;-51
2023/07/31 04:02:52;;;;;;;0.55;0.30;;;15.70;99.90;;;;;;5071408;28;20041;-49
2023/07/31 04:05:18;;;;;;;1.45;0.40;;;15.80;99.90;;;;;;5070116;28;20579;-49
2023/07/31 04:07:43;;;;;;;1.73;0.50;;;15.80;99.90;;;;;;5052227;28;20581;-53
2023/07/31 04:10:09;;;;;;;1.02;0.60;;;15.80;99.90;;;;;;5068009;28;20055;-52
2023/07/31 04:12:35;;;;;;;0.55;0.40;;;15.80;99.90;;;;;;5055682;28;20530;-49
2023/07/31 04:15:00;;;;;;;0.85;0.25;;;15.80;99.90;;;;;;5071510;28;20359;-49
2023/07/31 04:17:26;;;;;;;0.68;0.30;;;15.90;99.90;;;;;;5071115;28;20028;-49
2023/07/31 04:19:52;;;;;;;1.50;0.25;;;15.90;99.90;;;;;;5071165;28;20051;-49
2023/07/31 04:22:17;;;;;;;1.70;0.40;;;15.90;99.90;;;;;;5071247;28;20037;-52
2023/07/31 04:24:43;;;;;;;0.75;0.25;;;15.90;99.90;;;;;;5071096;28;20036;-49
2023/07/31 04:27:08;;;;;;;1.52;0.47;;;15.90;99.90;;;;;;5070690;28;20115;-51
2023/07/31 04:29:34;;;;;;;2.60;0.70;;;15.90;99.90;;;;;;5070441;28;20412;-50
2023/07/31 04:31:59;;;;;;;3.55;1.42;;;16.00;99.90;;;;;;5071050;28;20047;-53
2023/07/31 04:34:25;;;;;;;4.97;2.47;;;16.00;99.90;;;;;;5070279;28;20507;-49
2023/07/31 04:36:51;;;;;;;12.73;3.60;;;16.00;99.90;;;;;;5070630;28;20102;-53
2023/07/31 04:39:16;;;;;;;9.10;3.85;;;16.00;99.90;;;;;;5070599;28;20424;-50
2023/07/31 04:41:42;;;;;;;16.75;5.30;;;16.10;99.90;;;;;;5070383;28;20044;-52
2023/07/31 04:44:07;;;;;;;13.38;4.82;;;16.10;99.90;;;;;;5070482;28;20051;-50
2023/07/31 04:46:33;;;;;;;11.57;4.82;;;16.20;99.90;;;;;;5070655;28;20040;-49
2023/07/31 04:48:58;;;;;;;14.60;6.13;;;16.20;99.90;;;;;;5070467;28;20056;-49
2023/07/31 04:51:25;;;;;;;15.40;6.07;;;16.10;99.90;;;;;;5070449;28;20093;-50
2023/07/31 04:53:50;;;;;;;;;;;16.20;99.90;;;;;;5071444;28;20040;-50
2023/07/31 04:56:16;;;;;;;13.93;5.25;;;16.20;99.90;;;;;;5069992;28;19916;-52
2023/07/31 04:58:41;;;;;;;16.63;5.88;;;16.20;99.90;;;;;;5055828;28;20465;-49
2023/07/31 05:01:07;;;;;;;12.95;5.15;;;16.30;99.90;;;;;;5058846;28;20047;-49
2023/07/31 05:03:33;;;;;;;15.50;5.70;;;16.20;99.90;;;;;;5070841;28;20041;-49
2023/07/31 05:05:58;;;;;;;17.67;5.97;;;16.30;99.90;;;;;;5060439;28;20044;-53
2023/07/31 05:08:24;;;;;;;16.42;5.90;;;16.30;99.90;;;;;;5049854;28;20037;-49
2023/07/31 05:10:50;;;;;;;17.27;6.20;;;16.30;99.90;;;;;;5050014;28;20041;-49
2023/07/31 05:13:15;;;;;;;15.70;7.00;;;16.30;99.90;;;;;;5050057;28;20105;-49
2023/07/31 05:15:41;;;;;;;26.92;8.18;;;16.40;99.90;;;;;;5050589;28;20033;-49
2023/07/31 05:18:07;;;;;;;25.23;8.43;;;16.40;99.90;;;;;;5059653;28;20078;-49
2023/07/31 05:20:32;;;;;;;23.70;8.43;;;16.40;99.90;;;;;;5070276;28;20045;-52
2023/07/31 05:22:58;;;;;;;29.85;9.68;;;16.40;99.90;;;;;;5070185;28;20101;-49
2023/07/31 05:25:23;;;;;;;27.98;8.88;;;16.40;99.90;;;;;;5069834;28;20123;-49
2023/07/31 05:27:49;;;;;;;23.15;8.85;;;16.40;99.90;;;;;;5069675;28;20041;-49
2023/07/31 05:30:15;;;;;;;22.42;9.77;;;16.40;99.90;;;;;;5070110;28;20036;-50
2023/07/31 05:32:40;;;;;;;20.40;9.75;;;16.50;99.90;;;;;;5070424;28;20033;-50
2023/07/31 05:35:06;;;;;;;22.10;9.77;;;16.50;99.90;;;;;;5070162;28;20351;-50
2023/07/31 05:37:32;;;;;;;22.23;9.82;;;16.50;99.90;;;;;;5069706;28;20413;-52
2023/07/31 05:39:58;;;;;;;25.20;10.13;;;16.50;99.90;;;;;;5068455;28;20463;-53
2023/07/31 05:42:23;;;;;;;37.88;10.98;;;16.50;99.90;;;;;;5069550;28;20083;-49
2023/07/31 05:44:49;;;;;;;22.10;9.48;;;16.50;99.90;;;;;;5071025;28;20048;-50
2023/07/31 05:47:14;;;;;;;23.50;9.48;;;16.50;99.90;;;;;;5072935;28;20509;-53
2023/07/31 05:49:40;;;;;;;29.83;11.05;;;16.50;99.90;;;;;;5072082;28;20037;-49
2023/07/31 05:52:06;;;;;;;24.65;11.45;;;16.50;99.90;;;;;;5067624;28;20033;-49
2023/07/31 05:54:33;;;;;;;24.75;10.32;;;16.50;99.90;;;;;;5070068;28;20082;-51
2023/07/31 05:56:58;;;;;;;26.17;12.15;;;16.50;99.90;;;;;;5073386;28;20048;-49
2023/07/31 05:59:24;;;;;;;22.08;11.32;;;16.50;99.90;;;;;;5067375;28;20032;-49
2023/07/31 06:01:49;;;;;;;33.50;13.73;;;16.50;99.90;;;;;;5062686;28;20036;-49
2023/07/31 06:04:15;;;;;;;30.73;12.68;;;16.50;99.90;;;;;;5058130;28;20033;-53
2023/07/31 06:06:40;;;;;;;26.50;12.68;;;16.60;99.90;;;;;;5073706;28;20552;-49
2023/07/31 06:09:06;;;;;;;29.55;12.40;;;16.60;99.90;;;;;;5069308;28;20028;-49
2023/07/31 06:11:33;;;;;;;27.15;12.75;;;16.60;99.90;;;;;;5068297;28;20039;-49
2023/07/31 06:13:59;;;;;;;;;;;16.60;99.90;;;;;;5070643;28;20055;-49
2023/07/31 06:16:26;;;;;;;29.33;11.35;;;16.60;99.90;;;;;;5071190;28;19916;-49
2023/07/31 06:18:52;;;;;;;29.42;11.45;;;16.60;99.90;;;;;;5066746;28;20090;-50
2023/07/31 06:21:18;;;;;;;25.00;11.95;;;16.60;99.90;;;;;;5069822;28;20036;-49
2023/07/31 06:23:43;;;;;;;28.60;12.15;;;16.60;99.90;;;;;;5067506;28;20051;-52
2023/07/31 06:26:09;;;;;;;35.05;11.70;;;16.60;99.90;;;;;;5072367;28;20119;-49
2023/07/31 06:28:35;;;;;;;29.23;11.10;;;16.60;99.90;;;;;;5065033;28;20040;-49
2023/07/31 06:31:01;;;;;;;29.65;11.15;;;16.60;99.90;;;;;;5069526;28;20047;-52
2023/07/31 06:33:27;;;;;;;31.10;11.30;;;16.60;99.90;;;;;;5069155;28;20517;-49
2023/07/31 06:35:53;;;;;;;26.00;10.68;;;16.60;99.90;;;;;;5070684;28;20577;-52
2023/07/31 06:38:26;;;;;;;31.70;10.68;;;16.60;99.90;;;;;;5064923;28;20119;-51
2023/07/31 06:40:52;;;;;;;32.28;11.20;;;16.70;99.90;;;;;;5065851;28;20837;-50
2023/07/31 06:43:17;;;;;;;;;;;16.60;99.90;;;;;;5065466;28;20108;-52
2023/07/31 06:45:43;;;;;;;27.02;9.88;;;16.60;99.90;;;;;;5072632;28;20012;-50
2023/07/31 06:48:09;;;;;;;26.58;9.68;;;16.60;99.90;;;;;;5070621;28;20032;-50
2023/07/31 06:50:35;;;;;;;25.35;10.27;;;16.60;99.90;;;;;;5071623;28;20032;-50
2023/07/31 06:53:00;;;;;;;30.30;11.65;;;16.50;99.90;;;;;;5071001;28;20436;-50
2023/07/31 06:55:26;;;;;;;23.80;8.57;;;16.60;99.90;;;;;;5066932;28;20504;-54
2023/07/31 06:57:53;;;;;;;21.65;9.70;;;16.50;99.90;;;;;;5070453;28;20037;-55
2023/07/31 07:00:20;;;;;;;23.25;9.40;;;16.50;99.90;;;;;;5067507;28;20032;-50
2023/07/31 07:02:50;;;;;;;24.38;10.40;;;16.50;99.90;;;;;;5072005;28;20060;-54
2023/07/31 07:05:16;;;;;;;22.75;8.95;;;16.50;99.90;;;;;;5062203;28;20037;-50
2023/07/31 07:07:42;;;;;;;21.30;8.30;;;16.40;99.90;;;;;;5058347;28;20045;-53
2023/07/31 07:10:08;;;;;;;23.35;7.80;;;16.40;99.90;;;;;;5063962;28;20142;-50
2023/07/31 07:12:34;;;;;;;20.83;7.43;;;16.40;99.90;;;;;;5072002;28;20436;-53
2023/07/31 07:15:00;;;;;;;15.23;8.15;;;16.40;99.90;;;;;;5071986;28;20044;-50
2023/07/31 07:17:32;;;;;;;20.08;8.18;;;16.40;99.90;;;;;;5051971;28;20064;-50
2023/07/31 07:19:58;;;;;;;18.20;8.50;;;16.40;99.90;;;;;;5052170;28;20051;-50
2023/07/31 07:22:24;;;;;;;22.45;8.98;;;16.40;99.90;;;;;;5051967;28;20475;-50
2023/07/31 07:24:49;;;;;;;23.02;8.68;;;16.40;99.90;;;;;;5052633;28;20123;-52
2023/07/31 07:27:15;;;;;;;19.30;8.70;;;16.40;99.90;;;;;;5071867;28;20132;-50
2023/07/31 07:29:41;;;;;;;23.35;7.88;;;16.40;99.90;;;;;;5071310;28;20470;-52
2023/07/31 07:32:06;;;;;;;17.17;7.68;;;16.40;99.90;;;;;;5070727;28;20094;-50
2023/07/31 07:34:32;;;;;;;15.65;7.38;;;16.40;99.90;;;;;;5058782;28;20107;-56
2023/07/31 07:36:57;;;;;;;13.63;6.75;;;16.50;99.90;;;;;;5058724;28;20036;-50
2023/07/31 07:39:23;;;;;;;15.50;7.00;;;16.50;99.90;;;;;;5052319;28;20068;-51
2023/07/31 07:41:48;;;;;;;12.00;6.93;;;16.50;99.90;;;;;;5057613;28;20053;-53
2023/07/31 07:44:14;;;;;;;14.60;7.10;;;16.50;99.90;;;;;;5061314;28;20037;-50
2023/07/31 07:46:41;;;;;;;9.43;5.57;;;16.50;99.90;;;;;;5056000;28;20506;-53
2023/07/31 07:49:06;;;;;;;19.08;7.38;;;16.40;99.90;;;;;;5054649;28;20470;-50
2023/07/31 07:51:32;;;;;;;7.72;5.15;;;16.50;99.90;;;;;;5055897;28;20055;-50
2023/07/31 07:53:58;;;;;;;11.27;5.57;;;16.50;99.90;;;;;;5057049;28;20037;-52
2023/07/31 07:56:25;;;;;;;13.40;6.03;;;16.50;99.90;;;;;;5054158;28;20106;-50
2023/07/31 07:58:51;;;;;;;10.77;5.00;;;16.50;99.90;;;;;;5056200;28;20155;-55
2023/07/31 08:01:17;;;;;;;11.95;5.20;;;16.60;99.90;;;;;;5058919;28;20426;-53
2023/07/31 08:03:42;;;;;;;10.30;4.78;;;16.60;99.90;;;;;;5057201;28;20090;-50
2023/07/31 08:06:11;;;;;;;10.98;5.50;;;16.60;99.90;;;;;;5058789;28;20414;-50
2023/07/31 08:08:37;;;;;;;10.75;4.35;;;16.60;99.90;;;;;;5055251;28;20040;-53
2023/07/31 08:11:03;;;;;;;;;;;16.70;99.90;;;;;;5054858;28;20072;-58
2023/07/31 08:13:29;;;;;;;8.50;4.00;;;16.70;99.90;;;;;;5059127;28;19963;-51
2023/07/31 08:15:55;;;;;;;5.60;3.42;;;16.70;99.90;;;;;;5055159;28;20031;-50
2023/07/31 08:18:20;;;;;;;5.60;4.20;;;16.70;99.90;;;;;;5061910;28;20123;-54
2023/07/31 08:20:46;;;;;;;6.03;3.38;;;16.70;99.90;;;;;;5056198;28;20043;-54
2023/07/31 08:23:12;;;;;;;6.47;3.63;;;16.70;99.90;;;;;;5059342;28;20039;-51
2023/07/31 08:25:38;;;;;;;5.60;3.65;;;16.80;99.90;;;;;;5055647;28;20036;-53
2023/07/31 08:28:04;;;;;;;;;;;16.80;99.90;;;;;;5056870;28;20052;-50
2023/07/31 08:30:30;;;;;;;5.43;2.78;;;16.80;99.90;;;;;;5055409;28;19970;-52
2023/07/31 08:32:56;;;;;;;4.07;3.17;;;16.90;99.90;;;;;;5050861;28;20037;-55
2023/07/31 08:35:22;;;;;;;;;;;16.90;99.90;;;;;;5053271;28;20036;-50
2023/07/31 08:37:48;;;;;;;6.28;2.33;;;16.90;99.90;;;;;;5051998;28;19925;-54
2023/07/31 08:40:13;;;;;;;4.43;2.30;;;16.90;99.90;;;;;;5051262;28;20387;-51
2023/07/31 08:42:46;;;;;;;5.25;2.65;;;16.90;99.90;;;;;;5049709;28;20048;-53
2023/07/31 08:45:19;;;;;;;4.28;2.78;;;17.00;99.90;;;;;;5053442;28;20036;-54
2023/07/31 08:47:47;;;;;;;5.95;2.55;;;17.00;99.90;;;;;;5057679;28;20059;-53
2023/07/31 08:50:14;;;;;;;3.58;2.58;;;17.10;99.90;;;;;;5055085;28;20571;-56
2023/07/31 08:52:40;;;;;;;3.33;1.90;;;17.10;99.90;;;;;;5055257;28;20044;-56
2023/07/31 08:55:07;;;;;;;3.60;1.65;;;17.10;99.90;;;;;;5055067;28;20580;-53
2023/07/31 08:57:34;;;;;;;3.17;1.67;;;17.20;99.90;;;;;;5057610;28;20078;-51
2023/07/31 09:00:01;;;;;;;3.85;1.48;;;17.20;99.90;;;;;;5052696;28;20043;-55
2023/07/31 09:02:49;;;;;;;2.22;1.77;;;17.30;99.90;;;;;;5059188;28;20037;-53
2023/07/31 09:05:16;;;;;;;3.17;1.65;;;17.30;99.90;;;;;;5054630;28;20040;-52
2023/07/31 09:07:46;;;;;;;2.05;1.70;;;17.30;99.90;;;;;;5047724;28;20525;-54
2023/07/31 09:10:12;;;;;;;3.75;1.00;;;17.30;99.90;;;;;;5054863;28;20469;-51
2023/07/31 09:12:38;;;;;;;;;;;17.30;99.90;;;;;;5055529;28;20463;-54
2023/07/31 09:15:04;;;;;;;2.42;1.30;;;17.30;99.90;;;;;;5053645;28;20011;-53
2023/07/31 09:17:31;;;;;;;2.15;1.15;;;17.30;99.90;;;;;;5053656;28;20082;-53
2023/07/31 09:19:56;;;;;;;3.05;1.05;;;17.30;99.90;;;;;;5053766;28;20047;-56
2023/07/31 09:22:33;;;;;;;1.98;1.20;;;17.30;99.90;;;;;;5051989;28;20041;-57
2023/07/31 09:25:20;;;;;;;1.73;1.17;;;17.30;99.90;;;;;;5055313;28;20533;-57
2023/07/31 09:27:47;;;;;;;2.92;0.55;;;17.30;99.90;;;;;;5052829;28;20087;-56
2023/07/31 09:30:15;;;;;;;1.95;1.15;;;17.40;99.90;;;;;;5058660;28;20131;-57
2023/07/31 09:32:40;;;;;;;4.32;0.90;;;17.40;99.90;;;;;;5050569;28;20099;-57
2023/07/31 09:35:33;;;;;;;0.52;0.50;;;17.40;99.90;;;;;;5051205;28;20040;-56
2023/07/31 09:38:02;;;;;;;0.90;0.47;;;17.40;99.90;;;;;;5051712;28;20474;-57
2023/07/31 09:40:33;;;;;;;1.00;0.35;;;17.40;99.90;;;;;;5053718;28;20127;-55
2023/07/31 09:43:03;;;;;;;0.60;0.50;;;17.40;99.90;;;;;;5053510;28;20040;-56
2023/07/31 09:45:30;;;;;;;0.60;0.57;;;17.50;99.90;;;;;;5056039;28;20528;-56
2023/07/31 09:47:56;;;;;;;1.35;0.30;;;17.50;99.90;;;;;;5052938;28;20037;-55
2023/07/31 09:50:24;;;;;;;1.08;0.60;;;17.50;99.90;;;;;;5051844;28;20051;-57
2023/07/31 09:52:50;;;;;;;1.95;0.40;;;17.60;99.90;;;;;;5052850;28;20138;-56
2023/07/31 09:55:16;;;;;;;0.80;0.30;;;17.60;99.90;;;;;;5054184;28;20041;-57
2023/07/31 09:57:44;;;;;;;1.38;0.40;;;17.60;99.90;;;;;;5053215;28;20699;-56
2023/07/31 10:00:12;;;;;;;1.13;0.40;;;17.70;99.90;;;;;;5051988;28;20042;-57
2023/07/31 10:02:38;;;;;;;0.50;0.40;;;17.70;99.90;;;;;;5049364;28;20037;-58
2023/07/31 10:05:05;;;;;;;0.50;0.40;;;17.70;99.90;;;;;;5051131;28;20037;-55
2023/07/31 10:07:35;;;;;;;0.85;0.73;;;17.80;99.90;;;;;;5049091;28;20044;-56
2023/07/31 10:10:03;;;;;;;2.05;0.57;;;17.80;99.90;;;;;;5047853;28;20102;-58
2023/07/31 10:12:31;;;;;;;1.10;0.73;;;17.80;99.90;;;;;;5051401;28;20080;-55
2023/07/31 10:14:58;;;;;;;1.20;0.82;;;17.80;99.90;;;;;;5056809;28;20159;-57
2023/07/31 10:17:25;;;;;;;1.00;0.90;;;17.90;99.90;;;;;;5052564;28;20044;-55
2023/07/31 10:19:51;;;;;;;1.05;0.95;;;18.00;99.90;;;;;;5055677;28;20053;-58
2023/07/31 10:22:18;;;;;;;;;;;17.90;99.90;;;;;;5048211;28;20477;-56
2023/07/31 10:24:45;;;;;;;1.55;1.27;;;18.00;99.90;;;;;;5055232;28;19971;-56
2023/07/31 10:27:11;;;;;;;1.65;1.45;;;18.10;99.90;;;;;;5054402;28;20040;-56
2023/07/31 10:29:39;;;;;;;1.65;1.55;;;18.20;99.90;;;;;;5054368;28;20041;-57
2023/07/31 10:32:08;;;;;;;1.23;1.13;;;18.30;99.90;;;;;;5055112;28;20512;-57
2023/07/31 10:34:35;;;;;;;1.20;1.10;;;18.30;99.90;;;;;;5057745;28;21264;-58
2023/07/31 10:37:21;;;;;;;1.20;1.10;;;18.30;99.90;;;;;;5062641;28;20217;-55
2023/07/31 10:40:03;;;;;;;1.08;0.93;;;18.40;99.90;;;;;;5060547;28;20459;-56
2023/07/31 10:42:38;;;;;;;1.02;0.70;;;18.40;99.90;;;;;;5060917;28;20040;-55
2023/07/31 10:45:12;;;;;;;3.47;0.88;;;18.50;99.90;;;;;;5055244;28;20127;-56
2023/07/31 10:47:45;;;;;;;2.75;1.20;;;18.50;99.90;;;;;;5059345;28;20590;-56
2023/07/31 10:50:20;;;;;;;0.95;0.90;;;18.60;99.90;;;;;;5059520;28;20032;-56
2023/07/31 10:52:57;;;;;;;1.40;1.08;;;18.60;99.90;;;;;;5060930;28;20409;-57
2023/07/31 10:55:43;;;;;;;1.48;1.00;;;18.60;99.90;;;;;;5059826;28;20040;-58
2023/07/31 10:58:09;;;;;;;5.80;1.40;;;18.60;99.90;;;;;;5063152;28;20044;-58
2023/07/31 11:00:41;;;;;;;2.67;1.77;;;18.60;99.90;;;;;;5056463;28;20040;-57
2023/07/31 11:03:18;;;;;;;1.83;1.45;;;18.70;99.90;;;;;;5062887;28;20066;-58
2023/07/31 11:05:47;;;;;;;1.02;0.93;;;18.70;99.90;;;;;;5062941;28;20048;-57
2023/07/31 11:08:22;;;;;;;2.08;1.05;;;18.70;99.90;;;;;;5061924;28;20406;-56
2023/07/31 11:10:50;;;;;;;1.60;1.20;;;18.60;99.90;;;;;;5062041;28;20101;-56
2023/07/31 11:13:15;;;;;;;2.92;1.40;;;18.60;99.90;;;;;;5061329;28;20383;-55
2023/07/31 11:15:41;;;;;;;2.03;1.23;;;18.50;99.90;;;;;;5055912;28;20051;-56
2023/07/31 11:18:08;;;;;;;3.30;1.20;;;18.60;99.90;;;;;;5056357;28;20714;-56
2023/07/31 11:20:34;;;;;;;1.02;0.93;;;18.60;99.90;;;;;;5062234;28;20044;-58
2023/07/31 11:23:08;;;;;;;1.20;1.10;;;18.70;99.90;;;;;;5052839;28;20486;-57
2023/07/31 11:25:34;;;;;;;2.72;0.90;;;18.70;99.90;;;;;;5061664;28;20555;-54
2023/07/31 11:28:09;;;;;;;1.42;0.88;;;18.80;99.90;;;;;;5061965;28;20020;-56
2023/07/31 11:30:35;;;;;;;1.23;1.00;;;18.70;99.90;;;;;;5054152;28;20122;-55
2023/07/31 11:33:03;;;;;;;0.90;0.90;;;18.70;99.90;;;;;;5055053;28;21179;-55
2023/07/31 11:35:30;;;;;;;1.10;1.00;;;18.70;99.90;;;;;;5057256;28;20107;-57
2023/07/31 11:37:55;;;;;;;1.90;1.80;;;18.70;99.90;;;;;;5057139;28;20041;-55
2023/07/31 11:40:21;;;;;;;1.48;1.38;;;18.70;99.90;;;;;;5056227;28;20047;-54
2023/07/31 11:42:46;;;;;;;1.60;1.50;;;18.70;99.90;;;;;;5059610;28;20020;-56
2023/07/31 11:45:12;;;;;;;1.85;1.75;;;18.70;99.90;;;;;;5054988;28;20036;-54
2023/07/31 11:47:38;;;;;;;2.20;2.10;;;18.70;99.90;;;;;;5053970;28;20040;-57
2023/07/31 11:50:09;;;;;;;4.28;2.70;;;18.70;99.90;;;;;;5052511;28;20041;-55
2023/07/31 11:52:42;;;;;;;2.70;2.30;;;18.70;99.90;;;;;;5057485;28;20452;-56
2023/07/31 11:55:12;;;;;;;2.72;2.50;;;18.70;99.90;;;;;;5057758;28;20047;-56
2023/07/31 11:57:43;;;;;;;5.22;2.72;;;18.80;99.90;;;;;;5058794;28;20383;-54
2023/07/31 12:00:13;;;;;;;3.15;2.95;;;18.90;99.90;;;;;;5054216;28;20131;-53
2023/07/31 12:02:41;;;;;;;4.00;2.30;;;19.10;99.90;;;;;;5055764;28;20085;-56
2023/07/31 12:05:11;;;;;;;2.95;2.63;;;19.10;99.90;;;;;;5055570;28;20098;-56
2023/07/31 12:07:47;;;;;;;2.38;2.17;;;19.10;99.90;;;;;;5053217;28;20048;-55
2023/07/31 12:10:29;;;;;;;2.30;2.17;;;19.00;99.90;;;;;;5053875;28;20049;-56
2023/07/31 12:13:06;;;;;;;3.58;3.28;;;18.90;99.90;;;;;;5053460;28;20064;-55
2023/07/31 12:15:40;;;;;;;3.65;3.40;;;18.80;99.90;;;;;;5053304;28;20028;-53
2023/07/31 12:18:20;;;;;;;4.63;4.32;;;18.70;99.90;;;;;;5050094;28;20051;-54
2023/07/31 12:20:47;;;;;;;5.57;5.18;;;18.70;99.90;;;;;;5053680;28;20509;-57
2023/07/31 12:23:30;;;;;;;4.05;3.75;;;18.70;99.90;;;;;;5052966;28;20043;-54
2023/07/31 12:26:02;;;;;;;4.57;4.28;;;18.80;99.90;;;;;;5050809;28;20108;-57
2023/07/31 12:28:28;;;;;;;5.68;5.28;;;18.80;99.90;;;;;;5051243;28;20037;-57
2023/07/31 12:30:58;;;;;;;6.10;5.50;;;18.80;99.90;;;;;;5052706;28;20177;-57
2023/07/31 12:33:23;;;;;;;9.25;5.40;;;18.90;99.90;;;;;;5054289;28;20474;-56
2023/07/31 12:35:49;;;;;;;5.22;4.82;;;18.90;99.90;;;;;;5056544;28;20063;-55
2023/07/31 12:38:15;;;;;;;6.80;5.47;;;19.00;99.90;;;;;;5054598;28;20051;-57
2023/07/31 12:40:41;;;;;;;5.30;4.90;;;18.90;99.90;;;;;;5054342;28;20406;-54
2023/07/31 12:43:08;;;;;;;4.50;4.18;;;19.00;99.90;;;;;;5052938;28;20242;-55
2023/07/31 12:45:34;;;;;;;4.03;3.72;;;19.00;99.90;;;;;;5051104;28;20494;-56